sensor_id;sensor_type;location;lat;lon;timestamp;P1;durP1;ratioP1;P2;durP2;ratioP2
77170;SDS011;66144;50.020;14.422;2023-04-01T00:00:48;5.22;;;1.40;;
77170;SDS011;66144;50.020;14.422;2023-04-01T00:03:13;2.88;;;1.10;;
77170;SDS011;66144;50.020;14.422;2023-04-01T00:05:39;3.45;;;1.10;;
77170;SDS011;66144;50.020;14.422;2023-04-01T00:08:04;4.78;;;1.02;;
77170;SDS011;66144;50.020;14.422;2023-04-01T00:10:29;4.10;;;1.20;;
77170;SDS011;66144;50.020;14.422;2023-04-01T00:12:55;2.85;;;1.17;;
77170;SDS011;66144;50.020;14.422;2023-04-01T00:15:20;3.80;;;1.00;;
77170;SDS011;66144;50.020;14.422;2023-04-01T00:17:46;1.98;;;1.10;;
77170;SDS011;66144;50.020;14.422;2023-04-01T00:20:11;2.20;;;0.90;;
77170;SDS011;66144;50.020;14.422;2023-04-01T00:22:37;3.30;;;0.82;;
77170;SDS011;66144;50.020;14.422;2023-04-01T00:25:03;4.45;;;0.90;;
77170;SDS011;66144;50.020;14.422;2023-04-01T00:27:30;1.73;;;0.80;;
77170;SDS011;66144;50.020;14.422;2023-04-01T00:29:55;2.72;;;0.70;;
77170;SDS011;66144;50.020;14.422;2023-04-01T00:32:21;2.00;;;0.60;;
77170;SDS011;66144;50.020;14.422;2023-04-01T00:34:49;1.27;;;0.70;;
77170;SDS011;66144;50.020;14.422;2023-04-01T00:37:16;1.05;;;0.38;;
77170;SDS011;66144;50.020;14.422;2023-04-01T00:39:42;1.50;;;0.70;;
77170;SDS011;66144;50.020;14.422;2023-04-01T00:42:09;2.03;;;0.57;;
77170;SDS011;66144;50.020;14.422;2023-04-01T00:44:36;1.10;;;0.52;;
77170;SDS011;66144;50.020;14.422;2023-04-01T00:47:02;1.85;;;0.90;;
77170;SDS011;66144;50.020;14.422;2023-04-01T00:49:46;2.95;;;0.82;;
77170;SDS011;66144;50.020;14.422;2023-04-01T00:52:16;2.08;;;0.68;;
77170;SDS011;66144;50.020;14.422;2023-04-01T00:54:45;2.22;;;0.60;;
77170;SDS011;66144;50.020;14.422;2023-04-01T00:57:13;1.33;;;0.50;;
77170;SDS011;66144;50.020;14.422;2023-04-01T00:59:40;2.28;;;0.90;;
77170;SDS011;66144;50.020;14.422;2023-04-01T01:02:10;2.42;;;0.75;;
77170;SDS011;66144;50.020;14.422;2023-04-01T01:04:37;0.93;;;0.50;;
77170;SDS011;66144;50.020;14.422;2023-04-01T01:20:48;2.28;;;0.60;;
77170;SDS011;66144;50.020;14.422;2023-04-01T01:26:48;2.70;;;0.50;;
77170;SDS011;66144;50.020;14.422;2023-04-01T01:34:35;2.30;;;0.60;;
77170;SDS011;66144;50.020;14.422;2023-04-01T01:37:13;0.77;;;0.50;;
77170;SDS011;66144;50.020;14.422;2023-04-01T01:39:41;2.08;;;0.60;;
77170;SDS011;66144;50.020;14.422;2023-04-01T01:42:10;1.42;;;0.50;;
77170;SDS011;66144;50.020;14.422;2023-04-01T01:44:38;1.88;;;0.63;;
77170;SDS011;66144;50.020;14.422;2023-04-01T01:47:07;1.17;;;0.57;;
77170;SDS011;66144;50.020;14.422;2023-04-01T01:49:33;1.95;;;0.70;;
77170;SDS011;66144;50.020;14.422;2023-04-01T01:52:00;2.17;;;0.80;;
77170;SDS011;66144;50.020;14.422;2023-04-01T01:54:26;2.17;;;0.60;;
77170;SDS011;66144;50.020;14.422;2023-04-01T01:56:52;2.60;;;0.63;;
77170;SDS011;66144;50.020;14.422;2023-04-01T01:59:26;1.48;;;0.50;;
77170;SDS011;66144;50.020;14.422;2023-04-01T02:01:54;1.48;;;0.50;;
77170;SDS011;66144;50.020;14.422;2023-04-01T02:04:21;2.03;;;0.60;;
77170;SDS011;66144;50.020;14.422;2023-04-01T02:06:59;2.97;;;0.70;;
77170;SDS011;66144;50.020;14.422;2023-04-01T02:09:28;1.85;;;0.40;;
77170;SDS011;66144;50.020;14.422;2023-04-01T02:12:02;1.35;;;0.47;;
77170;SDS011;66144;50.020;14.422;2023-04-01T02:14:41;1.27;;;0.57;;
77170;SDS011;66144;50.020;14.422;2023-04-01T02:17:20;2.00;;;0.60;;
77170;SDS011;66144;50.020;14.422;2023-04-01T02:20:08;1.63;;;0.63;;
77170;SDS011;66144;50.020;14.422;2023-04-01T02:25:07;1.00;;;0.60;;
77170;SDS011;66144;50.020;14.422;2023-04-01T02:27:36;1.73;;;0.50;;
77170;SDS011;66144;50.020;14.422;2023-04-01T02:30:02;1.00;;;0.70;;
77170;SDS011;66144;50.020;14.422;2023-04-01T02:32:28;4.30;;;0.65;;
77170;SDS011;66144;50.020;14.422;2023-04-01T02:34:56;1.65;;;0.50;;
77170;SDS011;66144;50.020;14.422;2023-04-01T02:37:22;2.17;;;0.80;;
77170;SDS011;66144;50.020;14.422;2023-04-01T02:39:48;3.17;;;0.73;;
77170;SDS011;66144;50.020;14.422;2023-04-01T02:42:13;0.63;;;0.40;;
77170;SDS011;66144;50.020;14.422;2023-04-01T02:44:39;1.65;;;0.60;;
77170;SDS011;66144;50.020;14.422;2023-04-01T02:47:05;1.30;;;0.60;;
77170;SDS011;66144;50.020;14.422;2023-04-01T02:49:30;1.15;;;0.60;;
77170;SDS011;66144;50.020;14.422;2023-04-01T02:51:55;1.25;;;0.63;;
77170;SDS011;66144;50.020;14.422;2023-04-01T02:54:21;2.20;;;0.60;;
77170;SDS011;66144;50.020;14.422;2023-04-01T02:56:46;1.33;;;0.60;;
77170;SDS011;66144;50.020;14.422;2023-04-01T02:59:11;3.58;;;0.60;;
77170;SDS011;66144;50.020;14.422;2023-04-01T03:01:37;1.25;;;0.60;;
77170;SDS011;66144;50.020;14.422;2023-04-01T03:04:03;1.50;;;0.60;;
77170;SDS011;66144;50.020;14.422;2023-04-01T03:06:28;2.63;;;0.90;;
77170;SDS011;66144;50.020;14.422;2023-04-01T03:08:54;4.20;;;1.00;;
77170;SDS011;66144;50.020;14.422;2023-04-01T03:11:20;1.75;;;0.50;;
77170;SDS011;66144;50.020;14.422;2023-04-01T03:13:46;2.83;;;0.82;;
77170;SDS011;66144;50.020;14.422;2023-04-01T03:16:11;1.88;;;0.90;;
77170;SDS011;66144;50.020;14.422;2023-04-01T03:18:37;2.78;;;0.68;;
77170;SDS011;66144;50.020;14.422;2023-04-01T03:23:41;1.90;;;0.70;;
77170;SDS011;66144;50.020;14.422;2023-04-01T03:26:07;3.58;;;0.80;;
77170;SDS011;66144;50.020;14.422;2023-04-01T03:28:32;2.75;;;1.00;;
77170;SDS011;66144;50.020;14.422;2023-04-01T03:30:58;2.03;;;0.88;;
77170;SDS011;66144;50.020;14.422;2023-04-01T03:33:23;5.32;;;1.10;;
77170;SDS011;66144;50.020;14.422;2023-04-01T03:35:48;4.32;;;0.90;;
77170;SDS011;66144;50.020;14.422;2023-04-01T03:38:16;3.40;;;0.90;;
77170;SDS011;66144;50.020;14.422;2023-04-01T03:40:42;2.75;;;0.80;;
77170;SDS011;66144;50.020;14.422;2023-04-01T03:43:08;2.42;;;0.80;;
77170;SDS011;66144;50.020;14.422;2023-04-01T03:45:35;3.40;;;0.95;;
77170;SDS011;66144;50.020;14.422;2023-04-01T03:48:00;2.80;;;1.00;;
77170;SDS011;66144;50.020;14.422;2023-04-01T03:50:26;1.92;;;0.70;;
77170;SDS011;66144;50.020;14.422;2023-04-01T03:52:51;2.05;;;0.80;;
77170;SDS011;66144;50.020;14.422;2023-04-01T03:55:17;3.03;;;1.10;;
77170;SDS011;66144;50.020;14.422;2023-04-01T03:57:43;2.55;;;0.70;;
77170;SDS011;66144;50.020;14.422;2023-04-01T04:00:09;2.35;;;0.80;;
77170;SDS011;66144;50.020;14.422;2023-04-01T04:02:34;3.40;;;0.90;;
77170;SDS011;66144;50.020;14.422;2023-04-01T04:05:00;3.22;;;1.15;;
77170;SDS011;66144;50.020;14.422;2023-04-01T04:07:26;2.22;;;0.70;;
77170;SDS011;66144;50.020;14.422;2023-04-01T04:09:51;2.92;;;1.10;;
77170;SDS011;66144;50.020;14.422;2023-04-01T04:12:16;3.38;;;0.90;;
77170;SDS011;66144;50.020;14.422;2023-04-01T04:14:42;2.60;;;0.77;;
77170;SDS011;66144;50.020;14.422;2023-04-01T04:17:09;2.00;;;0.73;;
77170;SDS011;66144;50.020;14.422;2023-04-01T04:19:41;3.30;;;0.65;;
77170;SDS011;66144;50.020;14.422;2023-04-01T04:22:06;2.92;;;1.00;;
77170;SDS011;66144;50.020;14.422;2023-04-01T04:24:33;2.42;;;0.70;;
77170;SDS011;66144;50.020;14.422;2023-04-01T04:26:59;3.33;;;1.05;;
77170;SDS011;66144;50.020;14.422;2023-04-01T04:29:24;3.83;;;0.95;;
77170;SDS011;66144;50.020;14.422;2023-04-01T04:31:50;1.77;;;0.93;;
77170;SDS011;66144;50.020;14.422;2023-04-01T04:34:15;4.18;;;0.93;;
77170;SDS011;66144;50.020;14.422;2023-04-01T04:36:41;2.67;;;0.85;;
77170;SDS011;66144;50.020;14.422;2023-04-01T04:39:06;5.18;;;1.02;;
77170;SDS011;66144;50.020;14.422;2023-04-01T04:41:31;3.70;;;1.52;;
77170;SDS011;66144;50.020;14.422;2023-04-01T04:43:57;5.95;;;1.40;;
77170;SDS011;66144;50.020;14.422;2023-04-01T04:46:23;3.08;;;1.02;;
77170;SDS011;66144;50.020;14.422;2023-04-01T04:48:50;4.30;;;1.08;;
77170;SDS011;66144;50.020;14.422;2023-04-01T04:51:16;3.13;;;1.00;;
77170;SDS011;66144;50.020;14.422;2023-04-01T04:53:43;4.97;;;1.50;;
77170;SDS011;66144;50.020;14.422;2023-04-01T04:56:09;5.47;;;1.00;;
77170;SDS011;66144;50.020;14.422;2023-04-01T04:58:35;2.95;;;0.98;;
77170;SDS011;66144;50.020;14.422;2023-04-01T05:01:11;3.22;;;1.00;;
77170;SDS011;66144;50.020;14.422;2023-04-01T05:06:04;5.35;;;1.27;;
77170;SDS011;66144;50.020;14.422;2023-04-01T05:08:30;2.53;;;1.10;;
77170;SDS011;66144;50.020;14.422;2023-04-01T05:10:57;3.53;;;1.08;;
77170;SDS011;66144;50.020;14.422;2023-04-01T05:13:23;2.13;;;0.85;;
77170;SDS011;66144;50.020;14.422;2023-04-01T05:15:48;5.78;;;1.20;;
77170;SDS011;66144;50.020;14.422;2023-04-01T05:18:13;2.55;;;1.50;;
77170;SDS011;66144;50.020;14.422;2023-04-01T05:20:39;4.32;;;1.23;;
77170;SDS011;66144;50.020;14.422;2023-04-01T05:23:10;5.38;;;1.60;;
77170;SDS011;66144;50.020;14.422;2023-04-01T05:25:37;3.40;;;1.10;;
77170;SDS011;66144;50.020;14.422;2023-04-01T05:28:03;3.28;;;1.08;;
77170;SDS011;66144;50.020;14.422;2023-04-01T05:30:28;3.85;;;1.10;;
77170;SDS011;66144;50.020;14.422;2023-04-01T05:32:54;2.70;;;1.00;;
77170;SDS011;66144;50.020;14.422;2023-04-01T05:35:19;3.03;;;1.10;;
77170;SDS011;66144;50.020;14.422;2023-04-01T05:37:45;4.05;;;1.27;;
77170;SDS011;66144;50.020;14.422;2023-04-01T05:40:10;2.17;;;0.88;;
77170;SDS011;66144;50.020;14.422;2023-04-01T05:42:36;2.72;;;1.15;;
77170;SDS011;66144;50.020;14.422;2023-04-01T05:45:01;3.22;;;1.25;;
77170;SDS011;66144;50.020;14.422;2023-04-01T05:47:26;4.30;;;1.08;;
77170;SDS011;66144;50.020;14.422;2023-04-01T05:49:52;3.15;;;0.77;;
77170;SDS011;66144;50.020;14.422;2023-04-01T05:52:17;4.43;;;0.90;;
77170;SDS011;66144;50.020;14.422;2023-04-01T05:54:42;3.33;;;0.85;;
77170;SDS011;66144;50.020;14.422;2023-04-01T05:57:08;1.88;;;0.80;;
77170;SDS011;66144;50.020;14.422;2023-04-01T05:59:33;2.17;;;0.75;;
77170;SDS011;66144;50.020;14.422;2023-04-01T06:01:59;3.90;;;0.80;;
77170;SDS011;66144;50.020;14.422;2023-04-01T06:04:26;2.75;;;0.77;;
77170;SDS011;66144;50.020;14.422;2023-04-01T06:06:57;3.38;;;1.05;;
77170;SDS011;66144;50.020;14.422;2023-04-01T06:09:27;3.53;;;0.93;;
77170;SDS011;66144;50.020;14.422;2023-04-01T06:19:51;4.18;;;0.80;;
77170;SDS011;66144;50.020;14.422;2023-04-01T06:25:14;3.28;;;0.88;;
77170;SDS011;66144;50.020;14.422;2023-04-01T06:35:35;2.10;;;0.70;;
77170;SDS011;66144;50.020;14.422;2023-04-01T06:43:25;2.25;;;0.68;;
77170;SDS011;66144;50.020;14.422;2023-04-01T06:46:17;2.85;;;0.65;;
77170;SDS011;66144;50.020;14.422;2023-04-01T06:49:06;1.70;;;0.65;;
77170;SDS011;66144;50.020;14.422;2023-04-01T06:51:35;1.75;;;0.60;;
77170;SDS011;66144;50.020;14.422;2023-04-01T06:54:14;2.20;;;0.75;;
77170;SDS011;66144;50.020;14.422;2023-04-01T06:56:44;2.83;;;0.73;;
77170;SDS011;66144;50.020;14.422;2023-04-01T06:59:15;3.25;;;0.68;;
77170;SDS011;66144;50.020;14.422;2023-04-01T07:02:06;2.88;;;0.80;;
77170;SDS011;66144;50.020;14.422;2023-04-01T07:07:26;2.83;;;0.88;;
77170;SDS011;66144;50.020;14.422;2023-04-01T07:09:58;2.03;;;0.52;;
77170;SDS011;66144;50.020;14.422;2023-04-01T07:12:31;5.05;;;0.98;;
77170;SDS011;66144;50.020;14.422;2023-04-01T07:15:06;2.60;;;0.88;;
77170;SDS011;66144;50.020;14.422;2023-04-01T07:17:41;2.30;;;0.80;;
77170;SDS011;66144;50.020;14.422;2023-04-01T07:22:48;1.48;;;0.52;;
77170;SDS011;66144;50.020;14.422;2023-04-01T07:25:17;1.60;;;0.70;;
77170;SDS011;66144;50.020;14.422;2023-04-01T07:27:44;1.70;;;0.60;;
77170;SDS011;66144;50.020;14.422;2023-04-01T07:30:21;1.90;;;0.68;;
77170;SDS011;66144;50.020;14.422;2023-04-01T07:32:55;2.72;;;0.77;;
77170;SDS011;66144;50.020;14.422;2023-04-01T07:38:08;3.63;;;0.70;;
77170;SDS011;66144;50.020;14.422;2023-04-01T07:43:40;1.85;;;0.55;;
77170;SDS011;66144;50.020;14.422;2023-04-01T07:59:37;2.33;;;0.57;;
77170;SDS011;66144;50.020;14.422;2023-04-01T08:10:22;1.60;;;0.50;;
77170;SDS011;66144;50.020;14.422;2023-04-01T08:18:20;2.95;;;0.80;;
77170;SDS011;66144;50.020;14.422;2023-04-01T08:20:56;2.17;;;0.50;;
77170;SDS011;66144;50.020;14.422;2023-04-01T08:23:36;2.50;;;0.75;;
77170;SDS011;66144;50.020;14.422;2023-04-01T08:26:08;1.25;;;0.68;;
77170;SDS011;66144;50.020;14.422;2023-04-01T08:34:04;2.35;;;0.60;;
77170;SDS011;66144;50.020;14.422;2023-04-01T08:36:43;1.33;;;0.52;;
77170;SDS011;66144;50.020;14.422;2023-04-01T08:39:16;3.15;;;0.60;;
77170;SDS011;66144;50.020;14.422;2023-04-01T08:41:52;1.70;;;0.60;;
77170;SDS011;66144;50.020;14.422;2023-04-01T08:44:30;1.45;;;0.45;;
77170;SDS011;66144;50.020;14.422;2023-04-01T08:47:15;1.38;;;0.60;;
77170;SDS011;66144;50.020;14.422;2023-04-01T08:49:56;1.70;;;0.60;;
77170;SDS011;66144;50.020;14.422;2023-04-01T08:52:41;2.30;;;0.60;;
77170;SDS011;66144;50.020;14.422;2023-04-01T08:55:22;2.67;;;0.60;;
77170;SDS011;66144;50.020;14.422;2023-04-01T09:06:29;2.28;;;0.60;;
77170;SDS011;66144;50.020;14.422;2023-04-01T09:09:42;1.83;;;0.35;;
77170;SDS011;66144;50.020;14.422;2023-04-01T09:23:12;2.95;;;0.52;;
77170;SDS011;66144;50.020;14.422;2023-04-01T09:31:21;2.23;;;0.60;;
77170;SDS011;66144;50.020;14.422;2023-04-01T09:43:49;1.00;;;0.40;;
77170;SDS011;66144;50.020;14.422;2023-04-01T09:51:31;3.10;;;0.43;;
77170;SDS011;66144;50.020;14.422;2023-04-01T09:54:13;2.22;;;0.32;;
77170;SDS011;66144;50.020;14.422;2023-04-01T10:11:10;1.08;;;0.32;;
77170;SDS011;66144;50.020;14.422;2023-04-01T10:28:19;1.45;;;0.50;;
77170;SDS011;66144;50.020;14.422;2023-04-01T11:32:13;1.23;;;0.50;;
77170;SDS011;66144;50.020;14.422;2023-04-01T11:38:05;2.63;;;0.93;;
77170;SDS011;66144;50.020;14.422;2023-04-01T11:45:55;1.55;;;0.60;;
77170;SDS011;66144;50.020;14.422;2023-04-01T11:48:38;2.50;;;0.80;;
77170;SDS011;66144;50.020;14.422;2023-04-01T12:10:25;2.08;;;0.85;;
77170;SDS011;66144;50.020;14.422;2023-04-01T12:12:59;1.38;;;0.70;;
77170;SDS011;66144;50.020;14.422;2023-04-01T12:15:54;1.75;;;0.60;;
77170;SDS011;66144;50.020;14.422;2023-04-01T12:18:31;1.85;;;0.80;;
77170;SDS011;66144;50.020;14.422;2023-04-01T12:21:24;1.85;;;0.45;;
77170;SDS011;66144;50.020;14.422;2023-04-01T12:34:58;1.35;;;0.60;;
77170;SDS011;66144;50.020;14.422;2023-04-01T12:43:17;3.17;;;0.50;;
77170;SDS011;66144;50.020;14.422;2023-04-01T12:51:23;2.85;;;0.77;;
77170;SDS011;66144;50.020;14.422;2023-04-01T12:56:36;1.05;;;0.50;;
77170;SDS011;66144;50.020;14.422;2023-04-01T13:02:25;0.65;;;0.55;;
77170;SDS011;66144;50.020;14.422;2023-04-01T13:05:19;0.70;;;0.52;;
77170;SDS011;66144;50.020;14.422;2023-04-01T13:07:58;1.65;;;0.80;;
77170;SDS011;66144;50.020;14.422;2023-04-01T13:16:20;2.05;;;1.00;;
77170;SDS011;66144;50.020;14.422;2023-04-01T13:18:56;2.55;;;0.70;;
77170;SDS011;66144;50.020;14.422;2023-04-01T13:29:39;2.33;;;1.10;;
77170;SDS011;66144;50.020;14.422;2023-04-01T13:32:25;2.08;;;0.80;;
77170;SDS011;66144;50.020;14.422;2023-04-01T13:43:19;1.27;;;0.70;;
77170;SDS011;66144;50.020;14.422;2023-04-01T13:48:41;2.50;;;0.95;;
77170;SDS011;66144;50.020;14.422;2023-04-01T13:51:17;3.05;;;0.73;;
77170;SDS011;66144;50.020;14.422;2023-04-01T14:28:26;1.38;;;0.40;;
77170;SDS011;66144;50.020;14.422;2023-04-01T14:39:29;1.20;;;0.50;;
77170;SDS011;66144;50.020;14.422;2023-04-01T14:44:56;0.98;;;0.45;;
77170;SDS011;66144;50.020;14.422;2023-04-01T14:50:20;1.02;;;0.22;;
77170;SDS011;66144;50.020;14.422;2023-04-01T14:52:55;0.30;;;0.20;;
77170;SDS011;66144;50.020;14.422;2023-04-01T15:00:39;0.63;;;0.28;;
77170;SDS011;66144;50.020;14.422;2023-04-01T15:08:56;1.33;;;0.50;;
77170;SDS011;66144;50.020;14.422;2023-04-01T15:15:09;0.82;;;0.40;;
77170;SDS011;66144;50.020;14.422;2023-04-01T15:17:41;1.10;;;0.40;;
77170;SDS011;66144;50.020;14.422;2023-04-01T15:25:46;1.08;;;0.30;;
77170;SDS011;66144;50.020;14.422;2023-04-01T15:31:28;1.42;;;0.73;;
77170;SDS011;66144;50.020;14.422;2023-04-01T15:37:08;0.85;;;0.40;;
77170;SDS011;66144;50.020;14.422;2023-04-01T15:40:01;1.52;;;0.77;;
77170;SDS011;66144;50.020;14.422;2023-04-01T15:53:43;1.17;;;0.60;;
77170;SDS011;66144;50.020;14.422;2023-04-01T16:10:06;2.33;;;0.60;;
77170;SDS011;66144;50.020;14.422;2023-04-01T16:12:50;0.65;;;0.40;;
77170;SDS011;66144;50.020;14.422;2023-04-01T16:21:01;1.08;;;0.32;;
77170;SDS011;66144;50.020;14.422;2023-04-01T16:23:50;1.48;;;0.40;;
77170;SDS011;66144;50.020;14.422;2023-04-01T16:26:34;0.70;;;0.40;;
77170;SDS011;66144;50.020;14.422;2023-04-01T16:34:26;1.10;;;0.50;;
77170;SDS011;66144;50.020;14.422;2023-04-01T16:37:00;0.95;;;0.50;;
77170;SDS011;66144;50.020;14.422;2023-04-01T16:50:48;0.57;;;0.47;;
77170;SDS011;66144;50.020;14.422;2023-04-01T16:53:17;1.40;;;0.47;;
77170;SDS011;66144;50.020;14.422;2023-04-01T16:55:51;1.10;;;0.60;;
77170;SDS011;66144;50.020;14.422;2023-04-01T17:12:38;2.67;;;1.02;;
77170;SDS011;66144;50.020;14.422;2023-04-01T17:23:19;1.10;;;0.80;;
77170;SDS011;66144;50.020;14.422;2023-04-01T17:26:09;2.85;;;1.20;;
77170;SDS011;66144;50.020;14.422;2023-04-01T17:45:57;2.25;;;1.13;;
77170;SDS011;66144;50.020;14.422;2023-04-01T17:51:50;2.30;;;1.17;;
77170;SDS011;66144;50.020;14.422;2023-04-01T17:57:32;2.90;;;1.15;;
77170;SDS011;66144;50.020;14.422;2023-04-01T18:16:18;4.82;;;1.85;;
77170;SDS011;66144;50.020;14.422;2023-04-01T18:26:50;3.75;;;1.52;;
77170;SDS011;66144;50.020;14.422;2023-04-01T18:37:44;2.58;;;1.10;;
77170;SDS011;66144;50.020;14.422;2023-04-01T18:40:37;2.40;;;1.10;;
77170;SDS011;66144;50.020;14.422;2023-04-01T18:49:05;1.95;;;0.98;;
77170;SDS011;66144;50.020;14.422;2023-04-01T18:54:08;3.25;;;1.10;;
77170;SDS011;66144;50.020;14.422;2023-04-01T18:56:43;3.40;;;1.38;;
77170;SDS011;66144;50.020;14.422;2023-04-01T19:10:15;3.30;;;1.42;;
77170;SDS011;66144;50.020;14.422;2023-04-01T19:12:59;4.18;;;1.58;;
77170;SDS011;66144;50.020;14.422;2023-04-01T19:26:12;4.30;;;2.08;;
77170;SDS011;66144;50.020;14.422;2023-04-01T19:42:05;5.35;;;2.10;;
77170;SDS011;66144;50.020;14.422;2023-04-01T19:53:37;4.32;;;2.00;;
77170;SDS011;66144;50.020;14.422;2023-04-01T19:56:12;3.97;;;1.83;;
77170;SDS011;66144;50.020;14.422;2023-04-01T20:01:08;4.78;;;2.50;;
77170;SDS011;66144;50.020;14.422;2023-04-01T20:03:45;4.07;;;2.22;;
77170;SDS011;66144;50.020;14.422;2023-04-01T20:06:17;4.57;;;2.30;;
77170;SDS011;66144;50.020;14.422;2023-04-01T20:11:59;4.45;;;2.30;;
77170;SDS011;66144;50.020;14.422;2023-04-01T20:14:40;5.05;;;2.17;;
77170;SDS011;66144;50.020;14.422;2023-04-01T20:25:21;3.67;;;1.90;;
77170;SDS011;66144;50.020;14.422;2023-04-01T20:33:45;3.47;;;2.28;;
77170;SDS011;66144;50.020;14.422;2023-04-01T20:56:10;4.22;;;2.20;;
77170;SDS011;66144;50.020;14.422;2023-04-01T21:04:25;5.03;;;2.40;;
77170;SDS011;66144;50.020;14.422;2023-04-01T21:13:15;4.05;;;2.40;;
77170;SDS011;66144;50.020;14.422;2023-04-01T21:21:47;4.22;;;2.13;;
77170;SDS011;66144;50.020;14.422;2023-04-01T21:24:29;4.57;;;2.47;;
77170;SDS011;66144;50.020;14.422;2023-04-01T21:29:47;5.60;;;2.33;;
77170;SDS011;66144;50.020;14.422;2023-04-01T21:37:49;4.10;;;1.95;;
77170;SDS011;66144;50.020;14.422;2023-04-01T21:48:33;4.30;;;1.90;;
77170;SDS011;66144;50.020;14.422;2023-04-01T21:54:13;4.10;;;2.17;;
77170;SDS011;66144;50.020;14.422;2023-04-01T22:08:46;4.95;;;2.00;;
77170;SDS011;66144;50.020;14.422;2023-04-01T22:24:21;2.80;;;1.58;;
77170;SDS011;66144;50.020;14.422;2023-04-01T22:26:54;4.40;;;1.77;;
77170;SDS011;66144;50.020;14.422;2023-04-01T22:29:33;2.90;;;1.80;;
77170;SDS011;66144;50.020;14.422;2023-04-01T22:32:06;5.07;;;2.10;;
77170;SDS011;66144;50.020;14.422;2023-04-01T22:50:39;4.03;;;2.08;;
77170;SDS011;66144;50.020;14.422;2023-04-01T22:55:38;4.37;;;2.03;;
77170;SDS011;66144;50.020;14.422;2023-04-01T22:58:09;4.45;;;1.90;;
77170;SDS011;66144;50.020;14.422;2023-04-01T23:00:51;3.45;;;1.75;;
77170;SDS011;66144;50.020;14.422;2023-04-01T23:03:24;3.65;;;1.75;;
77170;SDS011;66144;50.020;14.422;2023-04-01T23:05:58;3.65;;;1.92;;
77170;SDS011;66144;50.020;14.422;2023-04-01T23:13:50;3.35;;;1.60;;
77170;SDS011;66144;50.020;14.422;2023-04-01T23:16:28;3.50;;;2.08;;
77170;SDS011;66144;50.020;14.422;2023-04-01T23:19:00;3.83;;;2.15;;
77170;SDS011;66144;50.020;14.422;2023-04-01T23:27:18;4.88;;;2.08;;
77170;SDS011;66144;50.020;14.422;2023-04-01T23:29:49;3.08;;;1.73;;
77170;SDS011;66144;50.020;14.422;2023-04-01T23:32:16;3.65;;;2.10;;
77170;SDS011;66144;50.020;14.422;2023-04-01T23:34:50;3.65;;;1.90;;
77170;SDS011;66144;50.020;14.422;2023-04-01T23:37:17;4.35;;;1.98;;
77170;SDS011;66144;50.020;14.422;2023-04-01T23:39:54;4.18;;;1.73;;
77170;SDS011;66144;50.020;14.422;2023-04-01T23:44:59;3.42;;;1.90;;
77170;SDS011;66144;50.020;14.422;2023-04-01T23:49:58;4.35;;;2.15;;
77170;SDS011;66144;50.020;14.422;2023-04-01T23:52:30;4.38;;;2.03;;
77170;SDS011;66144;50.020;14.422;2023-04-01T23:58:38;5.03;;;2.17;;
